createdAt,value
2023-04-09T00:00:00.416Z,68.02
2023-04-09T00:01:05.305Z,68.02
2023-04-09T00:02:00.488Z,68.02
2023-04-09T00:03:00.511Z,68.07
2023-04-09T00:04:00.436Z,68.07
2023-04-09T00:05:00.689Z,68.07
2023-04-09T00:06:00.458Z,68.07
2023-04-09T00:07:00.437Z,68.07
2023-04-09T00:08:00.378Z,68.64
2023-04-09T00:09:00.423Z,68.64
2023-04-09T00:10:00.411Z,68.64
2023-04-09T00:11:00.457Z,68.64
2023-04-09T00:12:00.463Z,68.64
2023-04-09T00:13:00.467Z,68.71
2023-04-09T00:14:00.493Z,68.71
2023-04-09T00:15:00.468Z,68.71
2023-04-09T00:16:00.387Z,68.71
2023-04-09T00:17:00.470Z,68.71
2023-04-09T00:18:00.566Z,68.63
2023-04-09T00:19:00.426Z,68.63
2023-04-09T00:20:00.417Z,68.63
2023-04-09T00:21:00.461Z,68.63
2023-04-09T00:22:00.365Z,68.63
2023-04-09T00:23:00.460Z,68.70
2023-04-09T00:24:00.410Z,68.70
2023-04-09T00:25:00.491Z,68.70
2023-04-09T00:26:00.382Z,68.70
2023-04-09T00:27:00.423Z,68.70
2023-04-09T00:28:00.461Z,68.70
2023-04-09T00:29:00.414Z,68.70
2023-04-09T00:30:00.375Z,68.70
2023-04-09T00:31:00.738Z,68.70
2023-04-09T00:32:00.444Z,68.70
2023-04-09T00:33:00.525Z,68.81
2023-04-09T00:34:00.445Z,68.81
2023-04-09T00:35:00.373Z,68.81
2023-04-09T00:36:00.457Z,68.81
2023-04-09T00:37:00.410Z,68.81
2023-04-09T00:38:00.417Z,68.83
2023-04-09T00:39:00.563Z,68.83
2023-04-09T00:40:00.462Z,68.83
2023-04-09T00:41:00.450Z,68.83
2023-04-09T00:42:00.447Z,68.83
2023-04-09T00:43:00.420Z,68.92
2023-04-09T00:44:00.410Z,68.92
2023-04-09T00:45:00.453Z,68.92
2023-04-09T00:46:00.505Z,68.92
2023-04-09T00:47:00.429Z,68.92
2023-04-09T00:48:00.488Z,68.90
2023-04-09T00:49:00.494Z,68.90
2023-04-09T00:50:01.072Z,68.90
2023-04-09T00:51:00.408Z,68.90
2023-04-09T00:52:00.452Z,68.90
2023-04-09T00:53:00.417Z,69.06
2023-04-09T00:54:00.440Z,69.06
2023-04-09T00:55:03.044Z,69.06
2023-04-09T00:56:01.071Z,69.06
2023-04-09T00:57:00.412Z,69.06
2023-04-09T00:58:00.733Z,69.17
2023-04-09T00:59:00.581Z,69.17
2023-04-09T01:00:00.761Z,69.17
2023-04-09T01:01:00.516Z,69.17
2023-04-09T01:02:00.502Z,69.17
2023-04-09T01:03:01.038Z,69.21
2023-04-09T01:04:00.498Z,69.21
2023-04-09T01:05:00.451Z,69.21
2023-04-09T01:06:10.234Z,69.21
2023-04-09T01:07:08.890Z,69.21
2023-04-09T01:08:02.764Z,69.21
2023-04-09T01:09:09.152Z,69.21
2023-04-09T01:10:10.247Z,69.21
2023-04-09T01:11:10.238Z,69.21
2023-04-09T01:12:10.243Z,69.21
2023-04-09T01:13:10.244Z,69.24
2023-04-09T01:14:04.172Z,69.24
2023-04-09T01:15:08.839Z,69.24
2023-04-09T01:16:02.045Z,69.24
2023-04-09T01:17:03.755Z,69.24
2023-04-09T01:18:05.296Z,69.14
2023-04-09T01:19:03.987Z,69.14
2023-04-09T01:20:07.998Z,69.14
2023-04-09T01:21:00.434Z,69.14
2023-04-09T01:22:01.758Z,69.14
2023-04-09T01:23:06.400Z,69.18
2023-04-09T01:24:10.228Z,69.18
2023-04-09T01:25:10.234Z,69.18
2023-04-09T01:26:03.443Z,69.18
2023-04-09T01:27:04.278Z,69.18
2023-04-09T01:28:10.226Z,69.17
2023-04-09T01:29:01.522Z,69.17
2023-04-09T01:30:03.054Z,69.17
2023-04-09T01:31:03.054Z,69.17
2023-04-09T01:32:01.947Z,69.17
2023-04-09T01:33:01.092Z,69.13
2023-04-09T01:34:00.723Z,69.13
2023-04-09T01:35:01.548Z,69.13
2023-04-09T01:36:00.463Z,69.13
2023-04-09T01:37:01.662Z,69.13
2023-04-09T01:38:01.233Z,69.21
2023-04-09T01:39:00.850Z,69.21
2023-04-09T01:40:00.630Z,69.21
2023-04-09T01:41:00.629Z,69.21
2023-04-09T01:42:00.569Z,69.21
2023-04-09T01:43:01.183Z,69.38
2023-04-09T01:44:01.876Z,69.38
2023-04-09T01:45:01.227Z,69.38
2023-04-09T01:46:01.026Z,69.38
2023-04-09T01:47:00.502Z,69.38
2023-04-09T01:48:01.215Z,69.37
2023-04-09T01:49:00.663Z,69.37
2023-04-09T01:50:01.384Z,69.37
2023-04-09T01:51:00.456Z,69.37
2023-04-09T01:52:00.877Z,69.37
2023-04-09T01:53:00.561Z,69.36
2023-04-09T01:54:00.526Z,69.36
2023-04-09T01:55:00.478Z,69.36
2023-04-09T01:56:00.650Z,69.36
2023-04-09T01:57:00.416Z,69.36
2023-04-09T01:58:00.411Z,69.42
2023-04-09T01:59:00.408Z,69.42
2023-04-09T02:00:00.477Z,69.42
2023-04-09T02:01:07.895Z,69.42
2023-04-09T02:02:02.179Z,69.42
2023-04-09T02:03:10.171Z,69.39
2023-04-09T02:04:02.463Z,69.39
2023-04-09T02:05:03.618Z,69.39
2023-04-09T02:06:10.250Z,69.39
2023-04-09T02:07:05.220Z,69.39
2023-04-09T02:08:01.640Z,69.53
2023-04-09T02:09:01.635Z,69.53
2023-04-09T02:10:00.707Z,69.53
2023-04-09T02:11:03.051Z,69.53
2023-04-09T02:12:02.115Z,69.53
2023-04-09T02:13:00.856Z,69.53
2023-04-09T02:14:00.480Z,69.53
2023-04-09T02:15:01.651Z,69.53
2023-04-09T02:16:00.918Z,69.53
2023-04-09T02:17:00.455Z,69.53
2023-04-09T02:18:00.680Z,69.59
2023-04-09T02:19:00.405Z,69.59
2023-04-09T02:20:00.420Z,69.59
2023-04-09T02:21:00.449Z,69.59
2023-04-09T02:22:03.086Z,69.59
2023-04-09T02:23:00.389Z,69.80
2023-04-09T02:24:00.413Z,69.80
2023-04-09T02:25:00.473Z,69.80
2023-04-09T02:26:00.525Z,69.80
2023-04-09T02:27:00.442Z,69.80
2023-04-09T02:28:00.405Z,69.95
2023-04-09T02:29:00.414Z,69.95
2023-04-09T02:30:00.425Z,69.95
2023-04-09T02:31:00.446Z,69.95
2023-04-09T02:32:00.531Z,69.95
2023-04-09T02:33:00.435Z,70.04
2023-04-09T02:34:00.408Z,70.04
2023-04-09T02:35:00.409Z,70.04
2023-04-09T02:36:00.472Z,70.04
2023-04-09T02:37:00.538Z,70.04
2023-04-09T02:38:01.789Z,70.09
2023-04-09T02:39:00.414Z,70.09
2023-04-09T02:40:00.453Z,70.09
2023-04-09T02:41:00.434Z,70.09
2023-04-09T02:42:00.509Z,70.09
2023-04-09T02:43:00.364Z,70.16
2023-04-09T02:44:00.444Z,70.16
2023-04-09T02:45:00.373Z,70.16
2023-04-09T02:46:00.473Z,70.16
2023-04-09T02:47:00.450Z,70.16
2023-04-09T02:48:00.451Z,70.13
2023-04-09T02:49:00.476Z,70.13
2023-04-09T02:50:00.453Z,70.13
2023-04-09T02:51:00.428Z,70.13
2023-04-09T02:52:00.422Z,70.13
2023-04-09T02:53:00.431Z,70.24
2023-04-09T02:54:00.497Z,70.24
2023-04-09T02:55:00.602Z,70.24
2023-04-09T02:56:00.377Z,70.24
2023-04-09T02:57:00.575Z,70.24
2023-04-09T02:58:00.428Z,70.27
2023-04-09T02:59:00.381Z,70.27
2023-04-09T03:00:00.479Z,70.27
2023-04-09T03:01:00.407Z,70.27
2023-04-09T03:02:00.548Z,70.27
2023-04-09T03:03:00.532Z,70.33
2023-04-09T03:04:00.513Z,70.33
2023-04-09T03:05:00.416Z,70.33
2023-04-09T03:06:00.422Z,70.33
2023-04-09T03:07:00.435Z,70.33
2023-04-09T03:08:00.591Z,70.49
2023-04-09T03:09:00.442Z,70.49
2023-04-09T03:10:00.433Z,70.49
2023-04-09T03:11:00.422Z,70.49
2023-04-09T03:12:00.522Z,70.49
2023-04-09T03:13:00.451Z,70.68
2023-04-09T03:14:00.461Z,70.68
2023-04-09T03:15:00.477Z,70.68
2023-04-09T03:16:00.533Z,70.68
2023-04-09T03:17:00.520Z,70.68
2023-04-09T03:18:00.436Z,70.64
2023-04-09T03:19:00.420Z,70.64
2023-04-09T03:20:00.431Z,70.64
2023-04-09T03:21:03.583Z,70.64
2023-04-09T03:22:00.371Z,70.64
2023-04-09T03:23:00.430Z,70.68
2023-04-09T03:24:00.432Z,70.68
2023-04-09T03:25:00.965Z,70.68
2023-04-09T03:26:01.041Z,70.68
2023-04-09T03:27:00.454Z,70.68
2023-04-09T03:28:00.456Z,70.62
2023-04-09T03:29:00.732Z,70.62
2023-04-09T03:30:00.380Z,70.62
2023-04-09T03:31:00.405Z,70.62
2023-04-09T03:32:00.459Z,70.62
2023-04-09T03:33:00.440Z,70.72
2023-04-09T03:34:00.445Z,70.72
2023-04-09T03:35:00.428Z,70.72
2023-04-09T03:36:00.520Z,70.72
2023-04-09T03:37:00.418Z,70.72
2023-04-09T03:38:00.453Z,70.76
2023-04-09T03:39:00.478Z,70.76
2023-04-09T03:40:00.482Z,70.76
2023-04-09T03:41:00.375Z,70.76
2023-04-09T03:42:00.425Z,70.76
2023-04-09T03:43:00.446Z,70.82
2023-04-09T03:44:00.427Z,70.82
2023-04-09T03:45:00.426Z,70.82
2023-04-09T03:46:00.414Z,70.82
2023-04-09T03:47:00.424Z,70.82
2023-04-09T03:48:00.384Z,70.76
2023-04-09T03:49:00.474Z,70.76
2023-04-09T03:50:00.461Z,70.76
2023-04-09T03:51:00.377Z,70.76
2023-04-09T03:52:00.471Z,70.76
2023-04-09T03:53:00.422Z,70.76
2023-04-09T03:54:00.428Z,70.76
2023-04-09T03:55:01.832Z,70.76
2023-04-09T03:56:00.382Z,70.76
2023-04-09T03:57:00.366Z,70.76
2023-04-09T03:58:00.380Z,70.75
2023-04-09T03:59:00.375Z,70.75
2023-04-09T04:00:00.472Z,70.75
2023-04-09T04:01:00.718Z,70.75
2023-04-09T04:02:00.620Z,70.75
2023-04-09T04:03:00.586Z,70.82
2023-04-09T04:04:00.636Z,70.82
2023-04-09T04:05:00.427Z,70.82
2023-04-09T04:06:00.622Z,70.82
2023-04-09T04:07:01.569Z,70.82
2023-04-09T04:08:00.424Z,70.81
2023-04-09T04:09:00.426Z,70.81
2023-04-09T04:10:00.409Z,70.81
2023-04-09T04:11:03.779Z,70.81
2023-04-09T04:12:00.484Z,70.81
2023-04-09T04:13:00.629Z,70.91
2023-04-09T04:14:00.369Z,70.91
2023-04-09T04:15:00.737Z,70.91
2023-04-09T04:16:00.479Z,70.91
2023-04-09T04:17:00.443Z,70.91
2023-04-09T04:18:00.424Z,70.97
2023-04-09T04:19:00.421Z,70.97
2023-04-09T04:20:00.415Z,70.97
2023-04-09T04:21:00.424Z,70.97
2023-04-09T04:22:00.404Z,70.97
2023-04-09T04:23:00.421Z,71.05
2023-04-09T04:24:00.410Z,71.05
2023-04-09T04:25:00.432Z,71.05
2023-04-09T04:26:00.413Z,71.05
2023-04-09T04:27:00.417Z,71.05
2023-04-09T04:28:00.442Z,71.15
2023-04-09T04:29:00.422Z,71.15
2023-04-09T04:30:00.470Z,71.15
2023-04-09T04:31:00.450Z,71.15
2023-04-09T04:32:00.603Z,71.15
2023-04-09T04:33:00.481Z,71.24
2023-04-09T04:34:00.558Z,71.24
2023-04-09T04:35:00.366Z,71.24
2023-04-09T04:36:04.274Z,71.24
2023-04-09T04:37:00.704Z,71.24
2023-04-09T04:38:00.447Z,71.31
2023-04-09T04:39:00.463Z,71.31
2023-04-09T04:40:00.760Z,71.31
2023-04-09T04:41:00.550Z,71.31
2023-04-09T04:42:00.460Z,71.31
2023-04-09T04:43:00.458Z,71.39
2023-04-09T04:44:00.461Z,71.39
2023-04-09T04:45:00.630Z,71.39
2023-04-09T04:46:00.395Z,71.39
2023-04-09T04:47:00.422Z,71.39
2023-04-09T04:48:00.489Z,71.44
2023-04-09T04:49:00.420Z,71.44
2023-04-09T04:50:00.465Z,71.44
2023-04-09T04:51:00.855Z,71.44
2023-04-09T04:52:00.436Z,71.44
2023-04-09T04:53:00.427Z,71.63
2023-04-09T04:54:00.372Z,71.63
2023-04-09T04:55:00.477Z,71.63
2023-04-09T04:56:00.405Z,71.63
2023-04-09T04:57:00.409Z,71.63
2023-04-09T04:58:00.411Z,71.79
2023-04-09T04:59:00.438Z,71.79
2023-04-09T05:00:00.445Z,71.79
2023-04-09T05:01:00.433Z,71.79
2023-04-09T05:02:00.501Z,71.79
2023-04-09T05:03:00.536Z,71.83
2023-04-09T05:04:00.491Z,71.83
2023-04-09T05:05:00.365Z,71.83
2023-04-09T05:06:00.454Z,71.83
2023-04-09T05:07:00.452Z,71.83
2023-04-09T05:08:00.579Z,71.96
2023-04-09T05:09:00.456Z,71.96
2023-04-09T05:10:00.455Z,71.96
2023-04-09T05:11:00.409Z,71.96
2023-04-09T05:12:00.451Z,71.96
2023-04-09T05:13:00.474Z,72.11
2023-04-09T05:14:00.411Z,72.11
2023-04-09T05:15:00.450Z,72.11
2023-04-09T05:16:00.434Z,72.11
2023-04-09T05:17:00.428Z,72.11
2023-04-09T05:18:00.503Z,72.14
2023-04-09T05:19:00.432Z,72.14
2023-04-09T05:20:00.410Z,72.14
2023-04-09T05:21:00.468Z,72.14
2023-04-09T05:22:00.596Z,72.14
2023-04-09T05:23:00.419Z,72.15
2023-04-09T05:24:00.442Z,72.15
2023-04-09T05:25:00.452Z,72.15
2023-04-09T05:26:00.466Z,72.15
2023-04-09T05:27:00.645Z,72.15
2023-04-09T05:28:00.433Z,72.08
2023-04-09T05:29:00.428Z,72.08
2023-04-09T05:30:01.165Z,72.08
2023-04-09T05:31:00.632Z,72.08
2023-04-09T05:32:00.654Z,72.08
2023-04-09T05:33:00.411Z,72.08
2023-04-09T05:34:00.428Z,72.08
2023-04-09T05:35:00.534Z,72.08
2023-04-09T05:36:00.515Z,72.08
2023-04-09T05:37:00.426Z,72.08
2023-04-09T05:38:00.418Z,72.02
2023-04-09T05:39:00.567Z,72.02
2023-04-09T05:40:00.421Z,72.02
2023-04-09T05:41:00.372Z,72.02
2023-04-09T05:42:00.424Z,72.02
2023-04-09T05:43:00.467Z,72.81
2023-04-09T05:44:01.008Z,72.81
2023-04-09T05:45:00.455Z,72.81
2023-04-09T05:46:00.442Z,72.81
2023-04-09T05:47:00.416Z,72.81
2023-04-09T05:48:00.481Z,72.95
2023-04-09T05:49:00.439Z,72.95
2023-04-09T05:50:00.423Z,72.95
2023-04-09T05:52:00.601Z,72.95
2023-04-09T05:53:00.414Z,72.87
2023-04-09T05:54:00.568Z,72.87
2023-04-09T05:55:00.616Z,72.87
2023-04-09T05:56:00.726Z,72.87
2023-04-09T05:57:00.421Z,72.87
2023-04-09T05:58:00.416Z,72.91
2023-04-09T05:59:00.421Z,72.91
2023-04-09T06:00:00.458Z,72.91
2023-04-09T06:01:00.432Z,72.91
2023-04-09T06:02:00.479Z,72.91
2023-04-09T06:03:00.481Z,73.01
2023-04-09T06:04:00.976Z,73.01
2023-04-09T06:05:00.563Z,73.01
2023-04-09T06:06:00.451Z,73.01
2023-04-09T06:07:00.586Z,73.01
2023-04-09T06:08:00.458Z,73.17
2023-04-09T06:09:00.428Z,73.17
2023-04-09T06:10:00.414Z,73.17
2023-04-09T06:11:00.454Z,73.17
2023-04-09T06:12:00.427Z,73.17
2023-04-09T06:13:00.416Z,73.31
2023-04-09T06:14:00.419Z,73.31
2023-04-09T06:15:00.448Z,73.31
2023-04-09T06:16:02.541Z,73.31
2023-04-09T06:17:00.459Z,73.31
2023-04-09T06:18:00.407Z,73.34
2023-04-09T06:19:00.425Z,73.34
2023-04-09T06:20:00.419Z,73.34
2023-04-09T06:21:01.214Z,73.34
2023-04-09T06:22:00.417Z,73.34
2023-04-09T06:23:00.453Z,73.29
2023-04-09T06:24:00.429Z,73.29
2023-04-09T06:25:00.380Z,73.29
2023-04-09T06:26:00.423Z,73.29
2023-04-09T06:27:00.429Z,73.29
2023-04-09T06:28:00.419Z,73.21
2023-04-09T06:29:00.447Z,73.21
2023-04-09T06:30:00.428Z,73.21
2023-04-09T06:31:00.492Z,73.21
2023-04-09T06:32:00.408Z,73.21
2023-04-09T06:33:00.442Z,72.96
2023-04-09T06:34:00.469Z,72.96
2023-04-09T06:35:00.472Z,72.96
2023-04-09T06:36:00.483Z,72.96
2023-04-09T06:37:00.412Z,72.96
2023-04-09T06:38:00.453Z,72.62
2023-04-09T06:39:00.442Z,72.62
2023-04-09T06:40:01.522Z,72.62
2023-04-09T06:41:00.421Z,72.62
2023-04-09T06:42:00.463Z,72.62
2023-04-09T06:43:00.459Z,71.83
2023-04-09T06:44:00.412Z,71.83
2023-04-09T06:45:00.405Z,71.83
2023-04-09T06:46:00.433Z,71.83
2023-04-09T06:47:00.413Z,71.83
2023-04-09T06:48:00.534Z,71.51
2023-04-09T06:49:00.645Z,71.51
2023-04-09T06:50:00.453Z,71.51
2023-04-09T06:51:00.464Z,71.51
2023-04-09T06:52:00.493Z,71.51
2023-04-09T06:53:00.911Z,71.45
2023-04-09T06:54:00.471Z,71.45
2023-04-09T06:55:00.449Z,71.45
2023-04-09T06:56:00.475Z,71.45
2023-04-09T06:57:00.419Z,71.45
2023-04-09T06:58:00.454Z,71.42
2023-04-09T06:59:00.446Z,71.42
2023-04-09T07:00:00.451Z,71.42
2023-04-09T07:01:00.539Z,71.42
2023-04-09T07:02:00.759Z,71.42
2023-04-09T07:03:00.729Z,71.72
2023-04-09T07:04:00.518Z,71.72
2023-04-09T07:05:00.454Z,71.72
2023-04-09T07:06:00.453Z,71.72
2023-04-09T07:07:00.462Z,71.72
2023-04-09T07:08:00.456Z,71.73
2023-04-09T07:09:00.477Z,71.73
2023-04-09T07:10:00.464Z,71.73
2023-04-09T07:11:00.462Z,71.73
2023-04-09T07:12:00.452Z,71.73
2023-04-09T07:13:00.506Z,71.81
2023-04-09T07:14:00.473Z,71.81
2023-04-09T07:15:02.323Z,71.81
2023-04-09T07:16:00.610Z,71.81
2023-04-09T07:17:00.464Z,71.81
2023-04-09T07:18:00.504Z,72.00
2023-04-09T07:19:00.454Z,72.00
2023-04-09T07:20:00.620Z,72.00
2023-04-09T07:21:00.475Z,72.00
2023-04-09T07:22:00.460Z,72.00
2023-04-09T07:23:00.455Z,72.31
2023-04-09T07:24:00.459Z,72.31
2023-04-09T07:25:00.500Z,72.31
2023-04-09T07:26:02.906Z,72.31
2023-04-09T07:27:02.796Z,72.31
2023-04-09T07:28:00.506Z,71.92
2023-04-09T07:29:00.514Z,71.92
2023-04-09T07:30:00.581Z,71.92
2023-04-09T07:31:00.634Z,71.92
2023-04-09T07:32:00.557Z,71.92
2023-04-09T07:33:00.630Z,71.90
2023-04-09T07:34:00.798Z,71.90
2023-04-09T07:35:01.829Z,71.90
2023-04-09T07:36:00.566Z,71.90
2023-04-09T07:37:00.450Z,71.90
2023-04-09T07:38:00.582Z,71.53
2023-04-09T07:39:00.453Z,71.53
2023-04-09T07:40:00.544Z,71.53
2023-04-09T07:41:00.502Z,71.53
2023-04-09T07:42:01.835Z,71.53
2023-04-09T07:43:00.456Z,71.58
2023-04-09T07:44:00.537Z,71.58
2023-04-09T07:45:00.531Z,71.58
2023-04-09T07:46:00.550Z,71.58
2023-04-09T07:47:00.514Z,71.58
2023-04-09T07:48:00.566Z,71.07
2023-04-09T07:49:00.542Z,71.07
2023-04-09T07:50:00.552Z,71.07
2023-04-09T07:51:00.525Z,71.07
2023-04-09T07:52:00.618Z,71.07
2023-04-09T07:53:00.571Z,70.78
2023-04-09T07:54:00.488Z,70.78
2023-04-09T07:55:00.549Z,70.78
2023-04-09T07:56:00.492Z,70.78
2023-04-09T07:57:00.502Z,70.78
2023-04-09T07:58:00.495Z,70.28
2023-04-09T07:59:00.508Z,70.28
2023-04-09T08:00:00.621Z,70.28
2023-04-09T08:01:00.530Z,70.28
2023-04-09T08:02:00.673Z,70.28
2023-04-09T08:03:00.803Z,69.80
2023-04-09T08:04:00.798Z,69.80
2023-04-09T08:05:00.696Z,69.80
2023-04-09T08:06:00.528Z,69.80
2023-04-09T08:07:00.532Z,69.80
2023-04-09T08:08:00.509Z,69.36
2023-04-09T08:09:00.534Z,69.36
2023-04-09T08:10:00.582Z,69.36
2023-04-09T08:11:00.514Z,69.36
2023-04-09T08:12:00.527Z,69.36
2023-04-09T08:13:00.548Z,68.94
2023-04-09T08:14:00.534Z,68.94
2023-04-09T08:15:00.547Z,68.94
2023-04-09T08:16:00.592Z,68.94
2023-04-09T08:17:00.553Z,68.94
2023-04-09T08:18:00.594Z,68.61
2023-04-09T08:19:00.533Z,68.61
2023-04-09T08:20:00.554Z,68.61
2023-04-09T08:21:03.518Z,68.61
2023-04-09T08:22:00.753Z,68.61
2023-04-09T08:23:00.495Z,68.55
2023-04-09T08:24:00.546Z,68.55
2023-04-09T08:25:02.695Z,68.55
2023-04-09T08:26:00.559Z,68.55
2023-04-09T08:27:00.512Z,68.55
2023-04-09T08:28:00.533Z,68.12
2023-04-09T08:29:00.534Z,68.12
2023-04-09T08:30:00.578Z,68.12
2023-04-09T08:31:00.521Z,68.12
2023-04-09T08:32:00.672Z,68.12
2023-04-09T08:33:00.635Z,67.89
2023-04-09T08:34:00.528Z,67.89
2023-04-09T08:35:00.489Z,67.89
2023-04-09T08:36:03.070Z,67.89
2023-04-09T08:37:00.401Z,67.89
2023-04-09T08:38:00.462Z,67.62
2023-04-09T08:39:00.779Z,67.62
2023-04-09T08:40:00.385Z,67.62
2023-04-09T08:41:00.514Z,67.62
2023-04-09T08:42:00.473Z,67.62
2023-04-09T08:43:03.109Z,67.70
2023-04-09T08:44:00.479Z,67.70
2023-04-09T08:45:02.640Z,67.70
2023-04-09T08:46:00.639Z,67.70
2023-04-09T08:47:00.604Z,67.70
2023-04-09T08:48:01.955Z,67.55
2023-04-09T08:49:00.795Z,67.55
2023-04-09T08:50:00.570Z,67.55
2023-04-09T08:51:00.562Z,67.55
2023-04-09T08:52:01.130Z,67.55
2023-04-09T08:53:03.405Z,67.33
2023-04-09T08:54:03.932Z,67.33
2023-04-09T08:55:00.589Z,67.33
2023-04-09T08:56:00.459Z,67.33
2023-04-09T08:57:03.674Z,67.33
2023-04-09T08:58:03.269Z,67.19
2023-04-09T08:59:00.463Z,67.19
2023-04-09T09:00:00.507Z,67.19
2023-04-09T09:01:00.520Z,67.19
2023-04-09T09:02:08.771Z,67.19
2023-04-09T09:03:01.474Z,67.16
2023-04-09T09:04:01.746Z,67.16
2023-04-09T09:05:00.490Z,67.16
2023-04-09T09:06:00.511Z,67.16
2023-04-09T09:07:04.955Z,67.16
2023-04-09T09:08:00.596Z,66.88
2023-04-09T09:09:00.380Z,66.88
2023-04-09T09:10:00.898Z,66.88
2023-04-09T09:11:00.376Z,66.88
2023-04-09T09:12:00.474Z,66.88
2023-04-09T09:13:00.716Z,66.39
2023-04-09T09:14:01.567Z,66.39
2023-04-09T09:15:00.630Z,66.39
2023-04-09T09:16:10.232Z,66.39
2023-04-09T09:17:01.322Z,66.39
2023-04-09T09:18:00.429Z,66.29
2023-04-09T09:19:00.918Z,66.29
2023-04-09T09:20:10.223Z,66.29
2023-04-09T09:21:10.237Z,66.29
2023-04-09T09:22:01.995Z,66.29
2023-04-09T09:23:01.722Z,65.82
2023-04-09T09:24:00.524Z,65.82
2023-04-09T09:25:00.408Z,65.82
2023-04-09T09:26:09.613Z,65.82
2023-04-09T09:27:00.816Z,65.82
2023-04-09T09:28:09.074Z,65.48
2023-04-09T09:29:02.284Z,65.48
2023-04-09T09:30:00.411Z,65.48
2023-04-09T09:31:06.721Z,65.48
2023-04-09T09:32:00.525Z,65.48
2023-04-09T09:33:10.238Z,65.13
2023-04-09T09:34:07.355Z,65.13
2023-04-09T09:35:01.835Z,65.13
2023-04-09T09:36:00.571Z,65.13
2023-04-09T09:37:00.410Z,65.13
2023-04-09T09:38:02.036Z,65.01
2023-04-09T09:39:01.754Z,65.01
2023-04-09T09:40:00.715Z,65.01
2023-04-09T09:41:10.250Z,65.01
2023-04-09T09:42:07.622Z,65.01
2023-04-09T09:43:00.414Z,64.82
2023-04-09T09:44:00.694Z,64.82
2023-04-09T09:45:00.474Z,64.82
2023-04-09T09:46:00.430Z,64.82
2023-04-09T09:47:02.663Z,64.82
2023-04-09T09:48:00.492Z,64.10
2023-04-09T09:49:00.447Z,64.10
2023-04-09T09:50:00.414Z,64.10
2023-04-09T09:51:01.948Z,64.10
2023-04-09T09:52:01.797Z,64.10
2023-04-09T09:53:02.340Z,64.18
2023-04-09T09:54:01.229Z,64.18
2023-04-09T09:55:01.730Z,64.18
2023-04-09T09:56:00.439Z,64.18
2023-04-09T11:11:01.289Z,56.38
2023-04-09T11:12:00.473Z,56.38
2023-04-09T11:13:00.848Z,56.38
2023-04-09T11:14:00.481Z,56.38
2023-04-09T11:15:00.515Z,55.67
2023-04-09T11:16:00.732Z,55.67
2023-04-09T11:17:01.964Z,55.67
2023-04-09T11:18:00.628Z,55.67
2023-04-09T11:19:00.624Z,55.67
2023-04-09T11:20:01.637Z,56.24
2023-04-09T11:21:01.906Z,56.24
2023-04-09T11:22:02.613Z,56.24
2023-04-09T11:23:00.850Z,56.24
2023-04-09T11:24:00.489Z,56.24
2023-04-09T11:25:00.634Z,54.63
2023-04-09T11:26:00.388Z,54.63
2023-04-09T11:27:00.412Z,54.63
2023-04-09T11:28:02.021Z,54.63
2023-04-09T11:29:04.055Z,54.63
2023-04-09T11:30:00.472Z,55.37
2023-04-09T11:31:03.805Z,55.37
2023-04-09T11:32:00.535Z,55.37
2023-04-09T11:33:00.631Z,55.37
2023-04-09T11:34:00.735Z,55.37
2023-04-09T11:35:00.505Z,54.36
2023-04-09T11:36:03.397Z,54.36
2023-04-09T11:37:00.390Z,54.36
2023-04-09T11:38:00.473Z,54.36
2023-04-09T11:39:01.269Z,54.36
2023-04-09T11:40:00.385Z,54.57
2023-04-09T11:41:00.670Z,54.57
2023-04-09T11:42:00.387Z,54.57
2023-04-09T11:43:00.480Z,54.57
2023-04-09T11:44:02.545Z,54.57
2023-04-09T11:45:00.692Z,54.00
2023-04-09T11:46:00.636Z,54.00
2023-04-09T11:47:00.771Z,54.00
2023-04-09T11:48:00.973Z,54.00
2023-04-09T11:49:00.763Z,54.00
2023-04-09T11:50:00.620Z,54.12
2023-04-09T11:51:00.934Z,54.12
2023-04-09T11:52:00.684Z,54.12
2023-04-09T11:53:00.391Z,54.12
2023-04-09T11:54:01.866Z,54.12
2023-04-09T11:55:01.021Z,54.15
2023-04-09T11:56:00.391Z,54.15
2023-04-09T11:57:02.615Z,54.15
2023-04-09T11:58:00.553Z,54.15
2023-04-09T11:59:00.790Z,54.15
2023-04-09T12:00:05.380Z,53.58
2023-04-09T12:01:00.542Z,53.58
2023-04-09T12:02:01.324Z,53.58
2023-04-09T12:03:01.525Z,53.58
2023-04-09T12:04:00.898Z,53.58
2023-04-09T12:05:03.645Z,53.00
2023-04-09T12:06:01.060Z,53.00
2023-04-09T12:07:00.649Z,53.00
2023-04-09T12:08:01.357Z,53.00
2023-04-09T12:09:00.398Z,53.00
2023-04-09T12:10:04.667Z,52.57
2023-04-09T12:11:10.308Z,52.57
2023-04-09T12:12:00.389Z,52.57
2023-04-09T12:13:01.263Z,52.57
2023-04-09T12:14:01.101Z,52.57
2023-04-09T12:15:05.896Z,52.91
2023-04-09T12:16:00.746Z,52.91
2023-04-09T12:17:00.563Z,52.91
2023-04-09T12:18:00.684Z,52.91
2023-04-09T12:19:08.041Z,52.91
2023-04-09T12:20:00.389Z,53.06
2023-04-09T12:21:00.535Z,53.06
2023-04-09T12:22:00.420Z,53.06
2023-04-09T12:23:01.550Z,53.06
2023-04-09T12:24:00.400Z,53.06
2023-04-09T12:25:00.382Z,53.01
2023-04-09T12:26:00.379Z,53.01
2023-04-09T12:27:00.464Z,53.01
2023-04-09T12:28:00.401Z,53.01
2023-04-09T12:29:00.398Z,53.01
2023-04-09T12:30:00.384Z,52.72
2023-04-09T12:31:00.381Z,52.72
2023-04-09T12:32:00.454Z,52.72
2023-04-09T12:33:01.577Z,52.72
2023-04-09T12:34:00.464Z,52.72
2023-04-09T12:35:00.386Z,52.62
2023-04-09T12:36:00.505Z,52.62
2023-04-09T12:37:00.385Z,52.62
2023-04-09T12:38:00.457Z,52.62
2023-04-09T12:39:00.868Z,52.62
2023-04-09T12:40:00.376Z,51.71
2023-04-09T12:41:01.814Z,51.71
2023-04-09T12:42:00.387Z,51.71
2023-04-09T12:43:00.445Z,51.71
2023-04-09T12:44:00.391Z,51.71
2023-04-09T12:45:00.919Z,51.42
2023-04-09T12:46:00.412Z,51.42
2023-04-09T12:47:00.482Z,51.42
2023-04-09T12:48:00.449Z,51.42
2023-04-09T12:49:00.404Z,51.42
2023-04-09T12:50:00.459Z,51.21
2023-04-09T12:51:00.713Z,51.21
2023-04-09T12:52:00.412Z,51.21
2023-04-09T12:53:00.424Z,51.21
2023-04-09T12:54:00.402Z,51.21
2023-04-09T12:55:00.619Z,50.58
2023-04-09T12:56:00.392Z,50.58
2023-04-09T12:57:00.419Z,50.58
2023-04-09T12:58:00.376Z,50.58
2023-04-09T12:59:00.408Z,50.58
2023-04-09T13:00:00.404Z,50.53
2023-04-09T13:01:00.634Z,50.53
2023-04-09T13:02:00.609Z,50.53
2023-04-09T13:03:00.530Z,50.53
2023-04-09T13:04:00.543Z,50.53
2023-04-09T13:05:00.419Z,50.28
2023-04-09T13:06:00.502Z,50.28
2023-04-09T13:07:00.406Z,50.28
2023-04-09T13:08:00.713Z,50.28
2023-04-09T13:09:00.472Z,50.28
2023-04-09T13:10:00.415Z,49.33
2023-04-09T13:11:00.407Z,49.33
2023-04-09T13:12:00.772Z,49.33
2023-04-09T13:13:00.387Z,49.33
2023-04-09T13:14:00.397Z,49.33
2023-04-09T13:15:00.426Z,50.22
2023-04-09T13:16:00.396Z,50.22
2023-04-09T13:17:00.460Z,50.22
2023-04-09T13:18:00.453Z,50.22
2023-04-09T13:19:00.414Z,50.22
2023-04-09T13:20:00.662Z,49.90
2023-04-09T13:21:00.405Z,49.90
2023-04-09T13:22:00.492Z,49.90
2023-04-09T13:23:00.868Z,49.90
2023-04-09T13:24:00.450Z,49.90
2023-04-09T13:25:00.670Z,49.82
2023-04-09T13:26:00.423Z,49.82
2023-04-09T13:27:00.705Z,49.82
2023-04-09T13:28:00.408Z,49.82
2023-04-09T13:29:00.390Z,49.82
2023-04-09T13:30:00.429Z,49.85
2023-04-09T13:31:01.041Z,49.85
2023-04-09T13:32:00.662Z,49.85
2023-04-09T13:33:00.404Z,49.85
2023-04-09T13:34:00.884Z,49.85
2023-04-09T13:35:00.422Z,49.17
2023-04-09T13:36:00.433Z,49.17
2023-04-09T13:37:01.108Z,49.17
2023-04-09T13:38:00.405Z,49.17
2023-04-09T13:39:00.505Z,49.17
2023-04-09T13:40:00.415Z,48.04
2023-04-09T13:41:00.484Z,48.04
2023-04-09T13:42:01.353Z,48.04
2023-04-09T13:43:00.408Z,48.04
2023-04-09T13:44:00.707Z,48.04
2023-04-09T13:45:00.414Z,48.35
2023-04-09T13:46:00.418Z,48.35
2023-04-09T13:47:00.406Z,48.35
2023-04-09T13:48:00.487Z,48.35
2023-04-09T13:49:00.476Z,48.35
2023-04-09T13:50:00.504Z,47.69
2023-04-09T13:51:00.487Z,47.69
2023-04-09T13:52:00.404Z,47.69
2023-04-09T13:53:00.615Z,47.69
2023-04-09T13:54:00.414Z,47.69
2023-04-09T13:55:00.415Z,48.62
2023-04-09T13:56:00.467Z,48.62
2023-04-09T13:57:00.728Z,48.62
2023-04-09T13:58:00.409Z,48.62
2023-04-09T13:59:00.467Z,48.62
2023-04-09T14:00:00.476Z,48.80
2023-04-09T14:01:01.805Z,48.80
2023-04-09T14:02:00.545Z,48.80
2023-04-09T14:03:01.774Z,48.80
2023-04-09T14:04:00.551Z,48.80
2023-04-09T14:05:00.414Z,48.28
2023-04-09T14:06:00.405Z,48.28
2023-04-09T14:07:00.419Z,48.28